sensor_id;sensor_type;location;lat;lon;timestamp;pressure;altitude;pressure_sealevel;temperature;humidity
16355;BME280;8287;51.644;8.494;2023-01-23T00:00:04;102129.44;;;4.11;89.32
16355;BME280;8287;51.644;8.494;2023-01-23T00:02:31;102128.31;;;4.00;89.08
16355;BME280;8287;51.644;8.494;2023-01-23T00:04:59;102126.50;;;4.01;89.48
16355;BME280;8287;51.644;8.494;2023-01-23T00:07:26;102120.97;;;4.09;89.77
16355;BME280;8287;51.644;8.494;2023-01-23T00:09:53;102128.28;;;4.07;89.21
16355;BME280;8287;51.644;8.494;2023-01-23T00:12:19;102120.44;;;4.00;89.35
16355;BME280;8287;51.644;8.494;2023-01-23T00:14:46;102116.53;;;4.09;89.59
16355;BME280;8287;51.644;8.494;2023-01-23T00:17:12;102119.31;;;4.14;89.35
16355;BME280;8287;51.644;8.494;2023-01-23T00:19:39;102129.41;;;3.93;88.70
16355;BME280;8287;51.644;8.494;2023-01-23T00:22:07;102117.75;;;3.89;89.51
16355;BME280;8287;51.644;8.494;2023-01-23T00:24:34;102120.91;;;3.97;89.76
16355;BME280;8287;51.644;8.494;2023-01-23T00:27:00;102114.44;;;4.00;89.83
16355;BME280;8287;51.644;8.494;2023-01-23T00:29:27;102114.63;;;3.98;89.90
16355;BME280;8287;51.644;8.494;2023-01-23T00:31:53;102117.47;;;3.97;89.60
16355;BME280;8287;51.644;8.494;2023-01-23T00:34:20;102119.06;;;3.98;89.75
16355;BME280;8287;51.644;8.494;2023-01-23T00:36:46;102115.75;;;4.09;89.81
16355;BME280;8287;51.644;8.494;2023-01-23T00:39:18;102113.78;;;4.04;88.91
16355;BME280;8287;51.644;8.494;2023-01-23T00:41:46;102119.50;;;3.95;89.03
16355;BME280;8287;51.644;8.494;2023-01-23T00:44:13;102117.16;;;3.87;89.31
16355;BME280;8287;51.644;8.494;2023-01-23T00:46:40;102115.88;;;3.96;89.73
16355;BME280;8287;51.644;8.494;2023-01-23T00:49:07;102116.44;;;3.98;89.63
16355;BME280;8287;51.644;8.494;2023-01-23T00:51:34;102120.25;;;4.02;89.23
16355;BME280;8287;51.644;8.494;2023-01-23T00:54:01;102122.84;;;3.84;89.01
16355;BME280;8287;51.644;8.494;2023-01-23T00:56:29;102129.75;;;3.78;89.50
16355;BME280;8287;51.644;8.494;2023-01-23T00:58:56;102122.47;;;3.80;89.85
16355;BME280;8287;51.644;8.494;2023-01-23T01:01:23;102132.81;;;3.93;90.22
16355;BME280;8287;51.644;8.494;2023-01-23T01:03:50;102125.78;;;3.94;89.99
16355;BME280;8287;51.644;8.494;2023-01-23T01:06:17;102126.78;;;3.93;89.78
16355;BME280;8287;51.644;8.494;2023-01-23T01:08:43;102126.22;;;3.91;89.70
16355;BME280;8287;51.644;8.494;2023-01-23T01:11:10;102127.06;;;3.85;89.76
16355;BME280;8287;51.644;8.494;2023-01-23T01:13:38;102125.41;;;3.90;90.21
16355;BME280;8287;51.644;8.494;2023-01-23T01:16:06;102119.13;;;3.91;90.03
16355;BME280;8287;51.644;8.494;2023-01-23T01:18:33;102127.53;;;4.00;90.19
16355;BME280;8287;51.644;8.494;2023-01-23T01:21:00;102131.56;;;4.02;89.67
16355;BME280;8287;51.644;8.494;2023-01-23T01:23:26;102135.03;;;3.96;89.61
16355;BME280;8287;51.644;8.494;2023-01-23T01:25:57;102154.53;;;4.00;89.47
16355;BME280;8287;51.644;8.494;2023-01-23T01:28:24;102145.06;;;3.99;89.22
16355;BME280;8287;51.644;8.494;2023-01-23T01:30:52;102146.09;;;3.98;89.40
16355;BME280;8287;51.644;8.494;2023-01-23T01:33:19;102155.50;;;4.06;89.37
16355;BME280;8287;51.644;8.494;2023-01-23T01:35:45;102155.44;;;3.94;88.99
16355;BME280;8287;51.644;8.494;2023-01-23T01:38:12;102150.50;;;4.04;89.36
16355;BME280;8287;51.644;8.494;2023-01-23T01:40:39;102149.59;;;4.10;88.98
16355;BME280;8287;51.644;8.494;2023-01-23T01:43:08;102159.75;;;4.07;88.20
16355;BME280;8287;51.644;8.494;2023-01-23T01:46:18;102163.59;;;4.04;88.83
16355;BME280;8287;51.644;8.494;2023-01-23T01:48:49;102167.63;;;4.07;88.65
16355;BME280;8287;51.644;8.494;2023-01-23T01:51:24;102169.50;;;4.00;88.85
16355;BME280;8287;51.644;8.494;2023-01-23T01:53:59;102174.66;;;4.06;89.04
16355;BME280;8287;51.644;8.494;2023-01-23T01:56:28;102182.91;;;4.10;88.79
16355;BME280;8287;51.644;8.494;2023-01-23T01:58:57;102167.88;;;3.99;89.00
16355;BME280;8287;51.644;8.494;2023-01-23T02:01:26;102185.97;;;4.07;89.17
16355;BME280;8287;51.644;8.494;2023-01-23T02:03:53;102170.25;;;4.07;89.23
16355;BME280;8287;51.644;8.494;2023-01-23T02:06:21;102174.66;;;4.06;89.37
16355;BME280;8287;51.644;8.494;2023-01-23T02:08:52;102178.81;;;4.14;89.23
16355;BME280;8287;51.644;8.494;2023-01-23T02:11:22;102181.59;;;4.19;88.94
16355;BME280;8287;51.644;8.494;2023-01-23T02:13:49;102191.28;;;4.18;88.43
16355;BME280;8287;51.644;8.494;2023-01-23T02:16:19;102178.25;;;4.12;88.31
16355;BME280;8287;51.644;8.494;2023-01-23T02:18:49;102179.84;;;4.13;88.66
16355;BME280;8287;51.644;8.494;2023-01-23T02:21:20;102175.78;;;4.17;88.59
16355;BME280;8287;51.644;8.494;2023-01-23T02:23:58;102180.09;;;4.11;88.41
16355;BME280;8287;51.644;8.494;2023-01-23T02:26:31;102189.31;;;4.14;88.63
16355;BME280;8287;51.644;8.494;2023-01-23T02:29:01;102192.91;;;4.19;88.52
16355;BME280;8287;51.644;8.494;2023-01-23T02:31:28;102193.72;;;4.20;88.69
16355;BME280;8287;51.644;8.494;2023-01-23T02:33:56;102186.84;;;4.19;87.99
16355;BME280;8287;51.644;8.494;2023-01-23T02:36:25;102194.94;;;4.17;88.24
16355;BME280;8287;51.644;8.494;2023-01-23T02:38:55;102192.53;;;4.16;88.25
16355;BME280;8287;51.644;8.494;2023-01-23T02:41:29;102185.69;;;4.15;88.86
16355;BME280;8287;51.644;8.494;2023-01-23T02:43:59;102198.38;;;4.18;88.42
16355;BME280;8287;51.644;8.494;2023-01-23T02:46:27;102204.47;;;4.12;88.67
16355;BME280;8287;51.644;8.494;2023-01-23T02:48:53;102202.88;;;4.11;88.97
16355;BME280;8287;51.644;8.494;2023-01-23T02:51:20;102202.88;;;4.11;88.96
16355;BME280;8287;51.644;8.494;2023-01-23T02:53:47;102207.31;;;4.10;89.34
16355;BME280;8287;51.644;8.494;2023-01-23T02:56:14;102211.56;;;4.11;89.37
16355;BME280;8287;51.644;8.494;2023-01-23T02:58:42;102210.81;;;4.04;89.40
16355;BME280;8287;51.644;8.494;2023-01-23T03:01:27;102213.19;;;4.06;89.68
16355;BME280;8287;51.644;8.494;2023-01-23T03:03:53;102210.91;;;4.16;89.87
16355;BME280;8287;51.644;8.494;2023-01-23T03:06:29;102214.47;;;4.21;88.85
16355;BME280;8287;51.644;8.494;2023-01-23T03:09:01;102213.47;;;4.22;88.59
16355;BME280;8287;51.644;8.494;2023-01-23T03:11:28;102212.06;;;4.20;88.52
16355;BME280;8287;51.644;8.494;2023-01-23T03:13:56;102214.47;;;4.21;88.46
16355;BME280;8287;51.644;8.494;2023-01-23T03:16:23;102200.78;;;4.19;88.36
16355;BME280;8287;51.644;8.494;2023-01-23T03:18:49;102190.88;;;4.21;88.87
16355;BME280;8287;51.644;8.494;2023-01-23T03:21:16;102198.50;;;4.23;88.62
16355;BME280;8287;51.644;8.494;2023-01-23T03:23:42;102202.59;;;4.19;88.96
16355;BME280;8287;51.644;8.494;2023-01-23T03:26:13;102205.16;;;4.25;88.52
16355;BME280;8287;51.644;8.494;2023-01-23T03:28:39;102198.66;;;4.28;88.75
16355;BME280;8287;51.644;8.494;2023-01-23T03:31:25;102206.34;;;4.29;88.52
16355;BME280;8287;51.644;8.494;2023-01-23T03:33:51;102208.97;;;4.29;88.32
16355;BME280;8287;51.644;8.494;2023-01-23T03:36:18;102212.00;;;4.26;88.33
16355;BME280;8287;51.644;8.494;2023-01-23T03:38:45;102216.28;;;4.21;88.80
16355;BME280;8287;51.644;8.494;2023-01-23T03:41:25;102206.16;;;4.24;88.85
16355;BME280;8287;51.644;8.494;2023-01-23T03:43:52;102207.56;;;4.27;88.70
16355;BME280;8287;51.644;8.494;2023-01-23T03:46:18;102210.75;;;4.29;88.28
16355;BME280;8287;51.644;8.494;2023-01-23T03:48:46;102218.84;;;4.27;88.01
16355;BME280;8287;51.644;8.494;2023-01-23T03:51:13;102214.84;;;4.25;88.48
16355;BME280;8287;51.644;8.494;2023-01-23T03:53:39;102220.47;;;4.28;88.13
16355;BME280;8287;51.644;8.494;2023-01-23T03:56:06;102223.13;;;4.22;88.49
16355;BME280;8287;51.644;8.494;2023-01-23T03:58:33;102217.09;;;4.21;88.48
16355;BME280;8287;51.644;8.494;2023-01-23T04:01:00;102223.22;;;4.15;88.67
16355;BME280;8287;51.644;8.494;2023-01-23T04:03:28;102219.81;;;4.15;89.08
16355;BME280;8287;51.644;8.494;2023-01-23T04:05:57;102219.50;;;4.23;89.09
16355;BME280;8287;51.644;8.494;2023-01-23T04:08:24;102215.78;;;4.12;89.14
16355;BME280;8287;51.644;8.494;2023-01-23T04:10:50;102213.53;;;4.16;89.09
16355;BME280;8287;51.644;8.494;2023-01-23T04:13:17;102202.22;;;4.15;89.55
16355;BME280;8287;51.644;8.494;2023-01-23T04:15:43;102205.38;;;4.24;89.41
16355;BME280;8287;51.644;8.494;2023-01-23T04:18:10;102207.34;;;4.28;89.40
16355;BME280;8287;51.644;8.494;2023-01-23T04:20:37;102200.13;;;4.24;89.12
16355;BME280;8287;51.644;8.494;2023-01-23T04:23:05;102207.78;;;4.25;88.86
16355;BME280;8287;51.644;8.494;2023-01-23T04:25:31;102206.16;;;4.24;88.65
16355;BME280;8287;51.644;8.494;2023-01-23T04:27:58;102211.41;;;4.24;88.67
16355;BME280;8287;51.644;8.494;2023-01-23T04:30:25;102213.03;;;4.25;88.66
16355;BME280;8287;51.644;8.494;2023-01-23T04:32:51;102206.25;;;4.18;88.54
16355;BME280;8287;51.644;8.494;2023-01-23T04:35:18;102199.59;;;4.15;88.64
16355;BME280;8287;51.644;8.494;2023-01-23T04:37:44;102202.69;;;4.06;89.36
16355;BME280;8287;51.644;8.494;2023-01-23T04:40:13;102190.47;;;4.00;89.45
16355;BME280;8287;51.644;8.494;2023-01-23T04:42:39;102186.34;;;3.86;89.69
16355;BME280;8287;51.644;8.494;2023-01-23T04:45:07;102181.75;;;3.81;90.58
16355;BME280;8287;51.644;8.494;2023-01-23T04:47:34;102188.38;;;3.84;90.78
16355;BME280;8287;51.644;8.494;2023-01-23T04:50:00;102179.44;;;3.91;90.60
16355;BME280;8287;51.644;8.494;2023-01-23T04:52:27;102188.13;;;3.92;90.39
16355;BME280;8287;51.644;8.494;2023-01-23T04:54:53;102190.56;;;3.87;90.41
16355;BME280;8287;51.644;8.494;2023-01-23T04:57:22;102197.41;;;3.88;90.90
16355;BME280;8287;51.644;8.494;2023-01-23T04:59:48;102199.00;;;3.95;90.75
16355;BME280;8287;51.644;8.494;2023-01-23T05:02:15;102206.97;;;4.07;90.63
16355;BME280;8287;51.644;8.494;2023-01-23T05:04:42;102209.66;;;4.18;90.43
16355;BME280;8287;51.644;8.494;2023-01-23T05:07:08;102206.81;;;4.20;90.38
16355;BME280;8287;51.644;8.494;2023-01-23T05:09:36;102211.63;;;4.23;89.93
16355;BME280;8287;51.644;8.494;2023-01-23T05:12:04;102213.25;;;4.24;89.81
16355;BME280;8287;51.644;8.494;2023-01-23T05:14:32;102208.88;;;4.18;89.29
16355;BME280;8287;51.644;8.494;2023-01-23T05:16:59;102202.59;;;4.19;89.44
16355;BME280;8287;51.644;8.494;2023-01-23T05:19:25;102211.31;;;4.13;89.60
16355;BME280;8287;51.644;8.494;2023-01-23T05:21:52;102205.59;;;4.22;89.63
16355;BME280;8287;51.644;8.494;2023-01-23T05:24:18;102214.63;;;4.26;89.35
16355;BME280;8287;51.644;8.494;2023-01-23T05:26:45;102211.22;;;4.26;89.25
16355;BME280;8287;51.644;8.494;2023-01-23T05:29:11;102210.09;;;4.15;89.11
16355;BME280;8287;51.644;8.494;2023-01-23T05:31:39;102209.72;;;4.12;89.37
16355;BME280;8287;51.644;8.494;2023-01-23T05:34:06;102214.72;;;3.95;89.72
16355;BME280;8287;51.644;8.494;2023-01-23T05:36:32;102221.31;;;3.98;90.07
16355;BME280;8287;51.644;8.494;2023-01-23T05:38:59;102219.63;;;4.10;90.00
16355;BME280;8287;51.644;8.494;2023-01-23T05:41:25;102217.91;;;4.22;89.77
16355;BME280;8287;51.644;8.494;2023-01-23T05:43:52;102229.34;;;4.27;89.53
16355;BME280;8287;51.644;8.494;2023-01-23T05:46:19;102227.53;;;4.28;89.47
16355;BME280;8287;51.644;8.494;2023-01-23T05:48:48;102223.59;;;4.37;88.85
16355;BME280;8287;51.644;8.494;2023-01-23T05:51:16;102228.84;;;4.37;88.86
16355;BME280;8287;51.644;8.494;2023-01-23T05:53:42;102234.28;;;4.42;88.58
16355;BME280;8287;51.644;8.494;2023-01-23T05:56:09;102243.88;;;4.48;88.30
16355;BME280;8287;51.644;8.494;2023-01-23T05:58:36;102238.50;;;4.43;88.13
16355;BME280;8287;51.644;8.494;2023-01-23T06:01:03;102243.00;;;4.36;87.89
16355;BME280;8287;51.644;8.494;2023-01-23T06:03:30;102249.47;;;4.33;88.26
16355;BME280;8287;51.644;8.494;2023-01-23T06:05:59;102237.59;;;4.31;88.37
16355;BME280;8287;51.644;8.494;2023-01-23T06:08:26;102242.78;;;4.37;88.58
16355;BME280;8287;51.644;8.494;2023-01-23T06:10:52;102249.00;;;4.43;88.11
16355;BME280;8287;51.644;8.494;2023-01-23T06:13:22;102253.88;;;4.39;88.07
16355;BME280;8287;51.644;8.494;2023-01-23T06:15:49;102250.59;;;4.44;88.33
16355;BME280;8287;51.644;8.494;2023-01-23T06:18:16;102255.03;;;4.43;87.98
16355;BME280;8287;51.644;8.494;2023-01-23T06:20:42;102264.53;;;4.44;88.10
16355;BME280;8287;51.644;8.494;2023-01-23T06:23:10;102259.50;;;4.43;87.68
16355;BME280;8287;51.644;8.494;2023-01-23T06:25:38;102261.53;;;4.41;87.81
16355;BME280;8287;51.644;8.494;2023-01-23T06:28:05;102265.53;;;4.43;87.84
16355;BME280;8287;51.644;8.494;2023-01-23T06:30:31;102273.31;;;4.32;87.58
16355;BME280;8287;51.644;8.494;2023-01-23T06:32:58;102278.28;;;4.40;88.23
16355;BME280;8287;51.644;8.494;2023-01-23T06:35:25;102274.03;;;4.39;87.88
16355;BME280;8287;51.644;8.494;2023-01-23T06:37:51;102272.44;;;4.38;88.18
16355;BME280;8287;51.644;8.494;2023-01-23T06:40:19;102285.16;;;4.41;87.62
16355;BME280;8287;51.644;8.494;2023-01-23T06:42:46;102282.09;;;4.44;87.86
16355;BME280;8287;51.644;8.494;2023-01-23T06:45:13;102290.13;;;4.49;87.18
16355;BME280;8287;51.644;8.494;2023-01-23T06:47:39;102293.03;;;4.41;86.95
16355;BME280;8287;51.644;8.494;2023-01-23T06:50:07;102295.91;;;4.33;87.15
16355;BME280;8287;51.644;8.494;2023-01-23T06:52:34;102296.56;;;4.28;87.09
16355;BME280;8287;51.644;8.494;2023-01-23T06:55:01;102305.97;;;4.36;87.11
16355;BME280;8287;51.644;8.494;2023-01-23T06:57:29;102315.44;;;4.37;87.10
16355;BME280;8287;51.644;8.494;2023-01-23T06:59:55;102316.19;;;4.44;86.66
16355;BME280;8287;51.644;8.494;2023-01-23T07:02:23;102327.53;;;4.44;86.63
16355;BME280;8287;51.644;8.494;2023-01-23T07:04:50;102323.69;;;4.40;86.70
16355;BME280;8287;51.644;8.494;2023-01-23T07:07:17;102330.13;;;4.44;86.17
16355;BME280;8287;51.644;8.494;2023-01-23T07:09:44;102327.28;;;4.46;86.09
16355;BME280;8287;51.644;8.494;2023-01-23T07:12:10;102327.72;;;4.43;86.27
16355;BME280;8287;51.644;8.494;2023-01-23T07:14:38;102332.78;;;4.38;86.52
16355;BME280;8287;51.644;8.494;2023-01-23T07:17:05;102337.13;;;4.26;86.72
16355;BME280;8287;51.644;8.494;2023-01-23T07:19:32;102344.75;;;4.34;87.37
16355;BME280;8287;51.644;8.494;2023-01-23T07:21:58;102342.78;;;4.29;87.40
16355;BME280;8287;51.644;8.494;2023-01-23T07:24:25;102340.72;;;4.31;87.21
16355;BME280;8287;51.644;8.494;2023-01-23T07:26:54;102348.13;;;4.41;87.38
16355;BME280;8287;51.644;8.494;2023-01-23T07:29:21;102341.41;;;4.45;86.79
16355;BME280;8287;51.644;8.494;2023-01-23T07:31:48;102360.81;;;4.44;86.58
16355;BME280;8287;51.644;8.494;2023-01-23T07:34:15;102349.94;;;4.40;86.74
16355;BME280;8287;51.644;8.494;2023-01-23T07:36:42;102350.38;;;4.37;86.85
16355;BME280;8287;51.644;8.494;2023-01-23T07:39:08;102352.78;;;4.39;86.83
16355;BME280;8287;51.644;8.494;2023-01-23T07:41:35;102356.59;;;4.43;86.76
16355;BME280;8287;51.644;8.494;2023-01-23T07:44:01;102353.59;;;4.39;86.76
16355;BME280;8287;51.644;8.494;2023-01-23T07:46:28;102365.31;;;4.37;86.78
16355;BME280;8287;51.644;8.494;2023-01-23T07:48:56;102364.72;;;4.35;86.80
16355;BME280;8287;51.644;8.494;2023-01-23T07:51:23;102369.53;;;4.38;86.91
16355;BME280;8287;51.644;8.494;2023-01-23T07:53:49;102366.50;;;4.41;87.05
16355;BME280;8287;51.644;8.494;2023-01-23T07:56:16;102366.91;;;4.38;86.70
16355;BME280;8287;51.644;8.494;2023-01-23T07:58:43;102361.50;;;4.33;86.90
16355;BME280;8287;51.644;8.494;2023-01-23T08:01:10;102368.50;;;4.39;87.05
16355;BME280;8287;51.644;8.494;2023-01-23T08:03:36;102371.19;;;4.32;86.57
16355;BME280;8287;51.644;8.494;2023-01-23T08:06:05;102382.50;;;4.33;87.01
16355;BME280;8287;51.644;8.494;2023-01-23T08:08:31;102377.03;;;4.34;87.11
16355;BME280;8287;51.644;8.494;2023-01-23T08:10:59;102384.25;;;4.39;87.34
16355;BME280;8287;51.644;8.494;2023-01-23T08:13:28;102386.88;;;4.39;87.22
16355;BME280;8287;51.644;8.494;2023-01-23T08:15:56;102382.63;;;4.44;87.34
16355;BME280;8287;51.644;8.494;2023-01-23T08:18:22;102387.50;;;4.41;87.05
16355;BME280;8287;51.644;8.494;2023-01-23T08:20:53;102395.31;;;4.47;86.86
16355;BME280;8287;51.644;8.494;2023-01-23T08:23:23;102388.03;;;4.49;86.83
16355;BME280;8287;51.644;8.494;2023-01-23T08:25:51;102391.59;;;4.55;87.31
16355;BME280;8287;51.644;8.494;2023-01-23T08:28:18;102394.03;;;4.56;86.90
16355;BME280;8287;51.644;8.494;2023-01-23T08:30:44;102390.22;;;4.52;87.25
16355;BME280;8287;51.644;8.494;2023-01-23T08:33:11;102386.53;;;4.60;86.92
16355;BME280;8287;51.644;8.494;2023-01-23T08:35:37;102388.34;;;4.59;87.08
16355;BME280;8287;51.644;8.494;2023-01-23T08:38:04;102383.31;;;4.58;87.17
16355;BME280;8287;51.644;8.494;2023-01-23T08:40:34;102391.59;;;4.55;86.77
16355;BME280;8287;51.644;8.494;2023-01-23T08:43:01;102385.78;;;4.53;86.77
16355;BME280;8287;51.644;8.494;2023-01-23T08:45:28;102392.91;;;4.46;86.88
16355;BME280;8287;51.644;8.494;2023-01-23T08:47:55;102388.59;;;4.51;86.73
16355;BME280;8287;51.644;8.494;2023-01-23T08:50:22;102387.38;;;4.54;86.93
16355;BME280;8287;51.644;8.494;2023-01-23T08:52:48;102388.94;;;4.61;86.60
16355;BME280;8287;51.644;8.494;2023-01-23T08:55:15;102380.16;;;4.49;86.34
16355;BME280;8287;51.644;8.494;2023-01-23T08:57:43;102384.50;;;4.62;86.88
16355;BME280;8287;51.644;8.494;2023-01-23T09:00:11;102380.63;;;4.64;86.52
16355;BME280;8287;51.644;8.494;2023-01-23T09:02:37;102377.63;;;4.61;86.90
16355;BME280;8287;51.644;8.494;2023-01-23T09:05:05;102383.06;;;4.66;86.68
16355;BME280;8287;51.644;8.494;2023-01-23T09:07:31;102399.06;;;4.58;86.17
16355;BME280;8287;51.644;8.494;2023-01-23T09:10:00;102395.38;;;4.65;86.52
16355;BME280;8287;51.644;8.494;2023-01-23T09:12:27;102398.53;;;4.74;86.28
16355;BME280;8287;51.644;8.494;2023-01-23T09:14:55;102396.97;;;4.66;86.28
16355;BME280;8287;51.644;8.494;2023-01-23T09:17:21;102407.69;;;4.65;86.34
16355;BME280;8287;51.644;8.494;2023-01-23T09:19:48;102407.00;;;4.76;86.11
16355;BME280;8287;51.644;8.494;2023-01-23T09:22:15;102410.22;;;4.78;86.45
16355;BME280;8287;51.644;8.494;2023-01-23T09:24:41;102414.28;;;4.74;86.12
16355;BME280;8287;51.644;8.494;2023-01-23T09:27:08;102415.84;;;4.81;86.11
16355;BME280;8287;51.644;8.494;2023-01-23T09:29:35;102411.66;;;4.74;86.11
16355;BME280;8287;51.644;8.494;2023-01-23T09:32:03;102426.50;;;4.62;86.57
16355;BME280;8287;51.644;8.494;2023-01-23T09:34:29;102421.72;;;4.77;86.61
16355;BME280;8287;51.644;8.494;2023-01-23T09:36:56;102419.41;;;4.87;86.41
16355;BME280;8287;51.644;8.494;2023-01-23T09:39:22;102418.63;;;4.86;86.06
16355;BME280;8287;51.644;8.494;2023-01-23T09:41:49;102423.50;;;4.83;85.72
16355;BME280;8287;51.644;8.494;2023-01-23T09:44:19;102424.66;;;4.87;85.58
16355;BME280;8287;51.644;8.494;2023-01-23T09:46:49;102427.63;;;4.97;85.69
16355;BME280;8287;51.644;8.494;2023-01-23T09:49:23;102427.22;;;4.93;85.39
16355;BME280;8287;51.644;8.494;2023-01-23T09:51:55;102419.97;;;4.95;85.01
16355;BME280;8287;51.644;8.494;2023-01-23T09:54:36;102431.69;;;4.93;85.30
16355;BME280;8287;51.644;8.494;2023-01-23T09:57:12;102434.25;;;4.99;85.24
16355;BME280;8287;51.644;8.494;2023-01-23T09:59:41;102432.88;;;4.97;84.62
16355;BME280;8287;51.644;8.494;2023-01-23T10:02:14;102433.69;;;4.97;85.06
16355;BME280;8287;51.644;8.494;2023-01-23T10:04:46;102443.16;;;4.98;85.04
16355;BME280;8287;51.644;8.494;2023-01-23T10:07:37;102435.66;;;5.02;85.14
16355;BME280;8287;51.644;8.494;2023-01-23T10:10:24;102435.22;;;5.05;84.73
16355;BME280;8287;51.644;8.494;2023-01-23T10:13:03;102448.34;;;5.05;84.58
16355;BME280;8287;51.644;8.494;2023-01-23T10:15:46;102441.88;;;5.07;84.73
16355;BME280;8287;51.644;8.494;2023-01-23T10:18:21;102432.31;;;5.13;84.45
16355;BME280;8287;51.644;8.494;2023-01-23T10:21:05;102434.34;;;5.11;84.22
16355;BME280;8287;51.644;8.494;2023-01-23T10:23:40;102444.66;;;5.12;84.06
16355;BME280;8287;51.644;8.494;2023-01-23T10:26:14;102432.47;;;5.18;84.33
16355;BME280;8287;51.644;8.494;2023-01-23T10:28:43;102436.78;;;5.12;84.00
16355;BME280;8287;51.644;8.494;2023-01-23T10:31:18;102438.22;;;5.08;84.52
16355;BME280;8287;51.644;8.494;2023-01-23T10:33:51;102437.00;;;5.11;84.77
16355;BME280;8287;51.644;8.494;2023-01-23T10:36:27;102440.38;;;5.18;84.57
16355;BME280;8287;51.644;8.494;2023-01-23T10:38:59;102428.63;;;5.20;84.28
16355;BME280;8287;51.644;8.494;2023-01-23T10:41:27;102440.00;;;5.14;84.54
16355;BME280;8287;51.644;8.494;2023-01-23T10:43:54;102436.63;;;5.07;84.61
16355;BME280;8287;51.644;8.494;2023-01-23T10:46:27;102425.66;;;5.10;84.37
16355;BME280;8287;51.644;8.494;2023-01-23T10:48:55;102424.97;;;5.21;84.96
16355;BME280;8287;51.644;8.494;2023-01-23T10:51:43;102422.06;;;5.29;84.84
16355;BME280;8287;51.644;8.494;2023-01-23T10:54:14;102429.34;;;5.27;84.62
16355;BME280;8287;51.644;8.494;2023-01-23T10:56:50;102423.50;;;5.25;84.27
16355;BME280;8287;51.644;8.494;2023-01-23T10:59:20;102423.72;;;5.24;83.91
16355;BME280;8287;51.644;8.494;2023-01-23T11:01:56;102421.81;;;5.31;83.95
16355;BME280;8287;51.644;8.494;2023-01-23T11:04:25;102429.41;;;5.39;84.02
16355;BME280;8287;51.644;8.494;2023-01-23T11:07:04;102429.56;;;5.44;83.94
16355;BME280;8287;51.644;8.494;2023-01-23T11:09:31;102420.97;;;5.37;83.57
16355;BME280;8287;51.644;8.494;2023-01-23T11:12:02;102423.88;;;5.29;83.33
16355;BME280;8287;51.644;8.494;2023-01-23T11:14:30;102436.06;;;5.41;82.97
16355;BME280;8287;51.644;8.494;2023-01-23T11:17:03;102424.53;;;5.42;83.58
16355;BME280;8287;51.644;8.494;2023-01-23T11:19:31;102416.66;;;5.42;82.82
16355;BME280;8287;51.644;8.494;2023-01-23T11:22:01;102415.78;;;5.48;83.03
16355;BME280;8287;51.644;8.494;2023-01-23T11:24:34;102419.94;;;5.38;83.34
16355;BME280;8287;51.644;8.494;2023-01-23T11:27:03;102417.16;;;5.51;82.94
16355;BME280;8287;51.644;8.494;2023-01-23T11:29:52;102412.56;;;5.46;82.40
16355;BME280;8287;51.644;8.494;2023-01-23T11:32:21;102414.97;;;5.48;82.96
16355;BME280;8287;51.644;8.494;2023-01-23T11:34:51;102409.19;;;5.57;82.85
16355;BME280;8287;51.644;8.494;2023-01-23T11:37:26;102409.78;;;5.59;82.62
16355;BME280;8287;51.644;8.494;2023-01-23T11:39:57;102409.41;;;5.56;82.56
16355;BME280;8287;51.644;8.494;2023-01-23T11:42:26;102399.41;;;5.64;82.24
16355;BME280;8287;51.644;8.494;2023-01-23T11:44:53;102405.34;;;5.60;81.87
16355;BME280;8287;51.644;8.494;2023-01-23T11:47:44;102403.06;;;5.63;82.28
16355;BME280;8287;51.644;8.494;2023-01-23T11:50:29;102394.25;;;5.58;82.90
16355;BME280;8287;51.644;8.494;2023-01-23T11:53:06;102389.47;;;5.66;82.32
16355;BME280;8287;51.644;8.494;2023-01-23T11:55:56;102400.25;;;5.76;82.14
16355;BME280;8287;51.644;8.494;2023-01-23T11:58:34;102394.81;;;5.60;81.69
16355;BME280;8287;51.644;8.494;2023-01-23T12:01:12;102401.16;;;5.70;81.95
16355;BME280;8287;51.644;8.494;2023-01-23T12:04:14;102391.22;;;5.72;81.48
16355;BME280;8287;51.644;8.494;2023-01-23T12:06:59;102399.63;;;5.81;81.26
16355;BME280;8287;51.644;8.494;2023-01-23T12:09:39;102397.72;;;5.88;81.48
16355;BME280;8287;51.644;8.494;2023-01-23T12:12:17;102405.31;;;5.96;81.49
16355;BME280;8287;51.644;8.494;2023-01-23T12:14:52;102393.63;;;5.92;80.97
16355;BME280;8287;51.644;8.494;2023-01-23T12:17:28;102396.25;;;5.92;80.98
16355;BME280;8287;51.644;8.494;2023-01-23T12:20:05;102395.66;;;5.90;81.12
16355;BME280;8287;51.644;8.494;2023-01-23T12:22:54;102392.09;;;5.84;81.84
16355;BME280;8287;51.644;8.494;2023-01-23T12:25:28;102396.38;;;5.97;81.38
16355;BME280;8287;51.644;8.494;2023-01-23T12:28:00;102398.28;;;5.90;81.34
16355;BME280;8287;51.644;8.494;2023-01-23T12:30:44;102386.03;;;5.84;81.47
16355;BME280;8287;51.644;8.494;2023-01-23T12:33:30;102388.22;;;5.87;81.39
16355;BME280;8287;51.644;8.494;2023-01-23T12:36:16;102386.78;;;6.02;81.64
16355;BME280;8287;51.644;8.494;2023-01-23T12:38:52;102385.06;;;5.96;81.21
16355;BME280;8287;51.644;8.494;2023-01-23T12:41:30;102385.13;;;5.90;80.94
16355;BME280;8287;51.644;8.494;2023-01-23T12:44:05;102389.19;;;6.04;81.09
16355;BME280;8287;51.644;8.494;2023-01-23T12:46:36;102392.19;;;6.07;81.03
16355;BME280;8287;51.644;8.494;2023-01-23T12:49:16;102398.69;;;6.05;80.19
16355;BME280;8287;51.644;8.494;2023-01-23T12:51:49;102396.25;;;5.92;80.35
16355;BME280;8287;51.644;8.494;2023-01-23T12:54:26;102386.75;;;5.91;80.98
16355;BME280;8287;51.644;8.494;2023-01-23T12:56:57;102392.66;;;6.04;80.91
16355;BME280;8287;51.644;8.494;2023-01-23T12:59:29;102385.13;;;5.90;80.75
16355;BME280;8287;51.644;8.494;2023-01-23T13:02:03;102389.38;;;5.91;81.12
16355;BME280;8287;51.644;8.494;2023-01-23T13:04:49;102394.63;;;5.91;80.75
16355;BME280;8287;51.644;8.494;2023-01-23T13:07:39;102393.38;;;5.93;81.05
16355;BME280;8287;51.644;8.494;2023-01-23T13:10:30;102398.75;;;5.87;81.55
16355;BME280;8287;51.644;8.494;2023-01-23T13:13:21;102400.56;;;5.86;81.24
16355;BME280;8287;51.644;8.494;2023-01-23T13:16:03;102399.41;;;5.82;81.00
16355;BME280;8287;51.644;8.494;2023-01-23T13:18:35;102393.63;;;5.92;81.11
16355;BME280;8287;51.644;8.494;2023-01-23T13:21:16;102398.91;;;5.92;80.31
16355;BME280;8287;51.644;8.494;2023-01-23T13:24:24;102407.78;;;5.91;80.34